Time;durP1;ratioP1;P1;durP2;ratioP2;P2;SDS_P1;SDS_P2;PMS_P1;PMS_P2;Temp;Humidity;BMP_temperature;BMP_pressure;BME280_temperature;BME280_humidity;BME280_pressure;Samples;Min_cycle;Max_cycle;Signal;HPM_P1;HPM_P2
2023/12/04 00:01:48;;;;;;;75.90;24.50;;;-0.50;99.90;;;;;;4993480;28;20115;-75
2023/12/04 00:04:14;;;;;;;65.20;25.85;;;-0.50;99.90;;;;;;4993303;28;20035;-74
2023/12/04 00:06:41;;;;;;;72.60;25.88;;;-0.50;99.90;;;;;;4994602;28;20082;-73
2023/12/04 00:09:07;;;;;;;69.20;24.23;;;-0.50;99.90;;;;;;4994495;28;20138;-76
2023/12/04 00:11:32;;;;;;;68.90;25.50;;;-0.50;99.90;;;;;;4993252;28;20027;-74
2023/12/04 00:13:59;;;;;;;70.18;25.45;;;-0.50;99.90;;;;;;4994176;28;20023;-74
2023/12/04 00:16:24;;;;;;;57.55;20.95;;;-0.50;99.90;;;;;;4994320;28;20087;-74
2023/12/04 00:18:50;;;;;;;63.88;23.15;;;-0.50;99.90;;;;;;4993137;28;20074;-73
2023/12/04 00:21:15;;;;;;;68.65;25.63;;;-0.50;99.90;;;;;;4994531;28;20037;-75
2023/12/04 00:23:41;;;;;;;65.45;24.73;;;-0.50;99.90;;;;;;4994210;28;20069;-74
2023/12/04 00:26:07;;;;;;;72.68;25.52;;;-0.50;99.90;;;;;;4993678;28;20093;-74
2023/12/04 00:28:36;;;;;;;66.85;24.98;;;-0.50;99.90;;;;;;4993632;28;20031;-73
2023/12/04 00:31:02;;;;;;;61.95;24.45;;;-0.50;99.90;;;;;;4992052;28;20474;-74
2023/12/04 00:33:27;;;;;;;65.55;24.58;;;-0.50;99.90;;;;;;4993071;28;20037;-74
2023/12/04 00:35:53;;;;;;;59.75;24.42;;;-0.50;99.90;;;;;;4992816;28;20035;-72
2023/12/04 00:38:19;;;;;;;69.95;26.52;;;-0.50;99.90;;;;;;4991784;28;20042;-73
2023/12/04 00:40:44;;;;;;;66.82;24.05;;;-0.50;99.90;;;;;;4993988;28;20029;-73
2023/12/04 00:43:10;;;;;;;54.05;20.08;;;-0.50;99.90;;;;;;4991901;28;20055;-72
2023/12/04 00:45:35;;;;;;;67.38;25.52;;;-0.50;99.90;;;;;;4993798;28;20077;-74
2023/12/04 00:48:02;;;;;;;61.38;21.75;;;-0.50;99.90;;;;;;4992399;28;20023;-74
2023/12/04 00:50:28;;;;;;;62.40;23.27;;;-0.50;99.90;;;;;;4993305;28;20102;-74
2023/12/04 00:52:53;;;;;;;68.05;25.02;;;-0.50;99.90;;;;;;4992371;28;20091;-74
2023/12/04 00:55:19;;;;;;;62.15;24.10;;;-0.60;99.90;;;;;;4993759;28;20030;-74
2023/12/04 00:57:45;;;;;;;68.10;25.73;;;-0.60;99.90;;;;;;4992552;28;20019;-74
2023/12/04 01:00:11;;;;;;;57.65;22.45;;;-0.60;99.90;;;;;;4993526;28;20030;-74
2023/12/04 01:02:37;;;;;;;60.90;23.95;;;-0.50;99.90;;;;;;4993359;28;20022;-73
2023/12/04 01:05:03;;;;;;;66.63;24.08;;;-0.50;99.90;;;;;;4993294;28;20030;-73
2023/12/04 01:07:29;;;;;;;67.10;23.52;;;-0.50;99.90;;;;;;4992243;28;20191;-74
2023/12/04 01:09:54;;;;;;;62.50;23.17;;;-0.50;99.90;;;;;;4992135;28;20022;-73
2023/12/04 01:12:21;;;;;;;64.28;24.05;;;-0.50;99.90;;;;;;4993302;28;20034;-73
2023/12/04 01:14:46;;;;;;;64.65;22.77;;;-0.50;99.90;;;;;;4991986;28;20101;-74
2023/12/04 01:17:12;;;;;;;62.72;23.38;;;-0.50;99.90;;;;;;4993661;28;20035;-74
2023/12/04 01:19:37;;;;;;;65.13;23.92;;;-0.50;99.90;;;;;;4993327;28;20030;-73
2023/12/04 01:22:03;;;;;;;63.13;23.15;;;-0.50;99.90;;;;;;4993115;28;20019;-75
2023/12/04 01:24:29;;;;;;;67.30;24.88;;;-0.50;99.90;;;;;;5008027;28;20038;-74
2023/12/04 01:26:54;;;;;;;62.22;23.25;;;-0.50;99.90;;;;;;5007692;28;20062;-73
2023/12/04 01:29:20;;;;;;;67.93;24.58;;;-0.50;99.90;;;;;;4991916;28;20034;-73
2023/12/04 01:31:45;;;;;;;64.63;22.73;;;-0.50;99.90;;;;;;4999447;28;20019;-75
2023/12/04 01:34:11;;;;;;;66.38;23.77;;;-0.50;99.90;;;;;;4993434;28;20026;-72
2023/12/04 01:36:40;;;;;;;59.45;21.95;;;-0.60;99.90;;;;;;4991971;28;20049;-73
2023/12/04 01:39:06;;;;;;;57.83;20.58;;;-0.50;99.90;;;;;;4992310;28;20023;-73
2023/12/04 01:41:31;;;;;;;60.80;22.83;;;-0.50;99.90;;;;;;4991702;28;20106;-72
2023/12/04 01:43:57;;;;;;;61.10;23.58;;;-0.50;99.90;;;;;;4991319;28;20023;-73
2023/12/04 01:46:23;;;;;;;62.42;24.33;;;-0.50;99.90;;;;;;4992929;28;20049;-73
2023/12/04 01:48:49;;;;;;;61.15;22.38;;;-0.50;99.90;;;;;;4993029;28;20039;-74
2023/12/04 01:51:17;;;;;;;57.25;21.10;;;-0.50;99.90;;;;;;4993006;28;20042;-73
2023/12/04 01:53:44;;;;;;;69.10;23.27;;;-0.50;99.90;;;;;;4992667;28;20023;-74
2023/12/04 01:56:10;;;;;;;68.32;25.48;;;-0.50;99.90;;;;;;4992702;28;20041;-73
2023/12/04 01:58:37;;;;;;;62.80;23.05;;;-0.50;99.90;;;;;;4992948;28;20023;-73
2023/12/04 02:01:04;;;;;;;55.45;20.80;;;-0.40;99.90;;;;;;4990310;28;20941;-73
2023/12/04 02:03:30;;;;;;;59.00;21.40;;;-0.40;99.90;;;;;;4992815;28;20052;-76
2023/12/04 02:06:00;;;;;;;57.55;20.08;;;-0.40;99.90;;;;;;4991305;28;20086;-73
2023/12/04 02:08:26;;;;;;;49.38;17.23;;;-0.50;99.90;;;;;;4991217;28;20490;-73
2023/12/04 02:10:52;;;;;;;47.47;17.27;;;-0.40;99.90;;;;;;5007597;28;20155;-73
2023/12/04 02:13:18;;;;;;;59.25;21.40;;;-0.40;99.90;;;;;;5007059;28;20524;-74
2023/12/04 02:15:45;;;;;;;62.60;22.33;;;-0.50;99.90;;;;;;4991445;28;20023;-74
2023/12/04 02:18:11;;;;;;;42.35;15.77;;;-0.40;99.90;;;;;;4992163;28;20113;-73
2023/12/04 02:20:37;;;;;;;51.20;17.85;;;-0.40;99.90;;;;;;4992565;28;20041;-74
2023/12/04 02:23:03;;;;;;;62.67;23.30;;;-0.40;99.90;;;;;;5007222;28;20042;-73
2023/12/04 02:25:29;;;;;;;62.50;22.48;;;-0.50;99.90;;;;;;4991988;28;20077;-73
2023/12/04 02:27:58;;;;;;;56.22;18.55;;;-0.40;99.90;;;;;;4994971;28;20034;-73
2023/12/04 02:30:24;;;;;;;60.42;21.65;;;-0.40;99.90;;;;;;4996321;28;20093;-73
2023/12/04 02:32:51;;;;;;;61.22;22.33;;;-0.40;99.90;;;;;;5011163;28;20062;-74
2023/12/04 02:35:22;;;;;;;51.45;18.88;;;-0.40;99.90;;;;;;4994487;28;20050;-73
2023/12/04 02:37:49;;;;;;;58.95;23.33;;;-0.50;99.90;;;;;;4995686;28;20026;-72
2023/12/04 02:40:15;;;;;;;54.90;19.67;;;-0.50;99.90;;;;;;4994731;28;20061;-73
2023/12/04 02:42:41;;;;;;;55.53;20.83;;;-0.50;99.90;;;;;;4995486;28;20026;-75
2023/12/04 02:45:07;;;;;;;59.60;21.10;;;-0.50;99.90;;;;;;4995273;28;20173;-73
2023/12/04 02:47:33;;;;;;;61.30;22.85;;;-0.40;99.90;;;;;;4993477;28;20035;-73
2023/12/04 02:49:59;;;;;;;57.97;20.33;;;-0.40;99.90;;;;;;4995283;28;20033;-74
2023/12/04 02:52:24;;;;;;;56.85;20.77;;;-0.40;99.90;;;;;;4995470;28;20423;-74
2023/12/04 02:54:50;;;;;;;60.28;21.33;;;-0.40;99.90;;;;;;4995843;28;20035;-75
2023/12/04 02:57:15;;;;;;;54.28;19.60;;;-0.40;99.90;;;;;;5010427;28;20031;-76
2023/12/04 02:59:41;;;;;;;58.78;19.95;;;-0.40;99.90;;;;;;4994069;28;20033;-75
2023/12/04 03:02:07;;;;;;;50.95;19.02;;;-0.40;99.90;;;;;;4993630;28;20096;-74
2023/12/04 03:04:34;;;;;;;54.90;20.98;;;-0.40;99.90;;;;;;4993713;28;20101;-75
2023/12/04 03:06:59;;;;;;;54.10;18.73;;;-0.40;99.90;;;;;;4994454;28;20022;-73
2023/12/04 03:09:25;;;;;;;62.10;19.15;;;-0.40;99.90;;;;;;4993850;28;20031;-74
2023/12/04 03:11:50;;;;;;;50.50;17.45;;;-0.40;99.90;;;;;;4992730;28;20019;-74
2023/12/04 03:14:16;;;;;;;65.25;20.95;;;-0.40;99.90;;;;;;4994759;28;20085;-73
2023/12/04 03:16:42;;;;;;;60.95;20.60;;;-0.40;99.90;;;;;;4995554;28;20046;-73
2023/12/04 03:19:07;;;;;;;47.13;18.30;;;-0.40;99.90;;;;;;4993270;28;20022;-74
2023/12/04 03:21:33;;;;;;;57.00;21.08;;;-0.40;99.90;;;;;;4994663;28;20109;-74
2023/12/04 03:23:58;;;;;;;57.03;20.70;;;-0.40;99.90;;;;;;4993866;28;20037;-75
2023/12/04 03:26:24;;;;;;;51.00;19.00;;;-0.40;99.90;;;;;;5009790;28;20054;-73
2023/12/04 03:28:49;;;;;;;38.78;14.15;;;-0.40;99.90;;;;;;4994542;28;20023;-73
2023/12/04 03:31:15;;;;;;;53.47;18.45;;;-0.40;99.90;;;;;;4993971;28;20093;-73
2023/12/04 03:33:40;;;;;;;58.40;19.98;;;-0.40;99.90;;;;;;4994700;28;20030;-74
2023/12/04 03:36:06;;;;;;;48.38;17.33;;;-0.40;99.90;;;;;;4994560;28;20034;-72
2023/12/04 03:38:32;;;;;;;61.92;22.38;;;-0.50;99.90;;;;;;4994321;28;20050;-72
2023/12/04 03:40:58;;;;;;;56.08;19.00;;;-0.40;99.90;;;;;;4993670;28;20034;-73
2023/12/04 03:43:23;;;;;;;43.92;16.17;;;-0.50;99.90;;;;;;4994361;28;20521;-74
2023/12/04 03:45:49;;;;;;;57.33;18.75;;;-0.50;99.90;;;;;;4993178;28;20039;-74
2023/12/04 03:48:14;;;;;;;59.55;21.23;;;-0.50;99.90;;;;;;4994477;28;20077;-74
2023/12/04 03:50:40;;;;;;;53.55;19.70;;;-0.40;99.90;;;;;;4994193;28;20038;-75
2023/12/04 03:53:05;;;;;;;59.50;20.63;;;-0.50;99.90;;;;;;4994181;28;20528;-74
2023/12/04 03:55:31;;;;;;;46.88;16.17;;;-0.50;99.90;;;;;;4994486;28;20538;-73
2023/12/04 03:57:57;;;;;;;49.15;18.13;;;-0.40;99.90;;;;;;5009088;28;20042;-73
2023/12/04 04:00:23;;;;;;;52.95;18.95;;;-0.50;99.90;;;;;;4990936;28;20039;-74
2023/12/04 04:02:49;;;;;;;48.63;17.20;;;-0.50;99.90;;;;;;4993000;28;20047;-74
2023/12/04 04:05:15;;;;;;;58.10;20.10;;;-0.50;99.90;;;;;;4993928;28;20057;-73
2023/12/04 04:07:41;;;;;;;51.13;16.25;;;-0.50;99.90;;;;;;4994142;28;20026;-74
2023/12/04 04:10:07;;;;;;;51.78;18.98;;;-0.50;99.90;;;;;;4993204;28;20033;-74
2023/12/04 04:12:33;;;;;;;53.47;20.00;;;-0.50;99.90;;;;;;4993371;28;20026;-74
2023/12/04 04:14:58;;;;;;;62.10;19.95;;;-0.50;99.90;;;;;;4993570;28;20030;-74
2023/12/04 04:17:27;;;;;;;51.70;19.83;;;-0.50;99.90;;;;;;4992315;28;20054;-74
2023/12/04 04:19:53;;;;;;;53.80;19.58;;;-0.50;99.90;;;;;;4993896;28;20082;-76
2023/12/04 04:22:20;;;;;;;51.05;19.08;;;-0.50;99.90;;;;;;4993404;28;20377;-73
2023/12/04 04:24:47;;;;;;;61.67;21.88;;;-0.50;99.90;;;;;;4991428;28;20058;-75
2023/12/04 04:27:12;;;;;;;56.03;19.23;;;-0.50;99.90;;;;;;4992698;28;20043;-75
2023/12/04 04:29:38;;;;;;;55.53;18.67;;;-0.50;99.90;;;;;;4993996;28;20034;-76
2023/12/04 04:32:04;;;;;;;53.83;18.85;;;-0.50;99.90;;;;;;4992211;28;20019;-74
2023/12/04 04:34:29;;;;;;;54.17;19.02;;;-0.50;99.90;;;;;;4993339;28;20034;-74
2023/12/04 04:36:55;;;;;;;50.97;17.77;;;-0.40;99.90;;;;;;4993177;28;20114;-72
2023/12/04 04:39:21;;;;;;;54.35;17.40;;;-0.50;99.90;;;;;;4992585;28;20030;-76
2023/12/04 04:41:46;;;;;;;54.55;20.42;;;-0.50;99.90;;;;;;5008567;28;20034;-73
2023/12/04 04:44:12;;;;;;;49.42;18.58;;;-0.50;99.90;;;;;;4993942;28;20070;-74
2023/12/04 04:46:37;;;;;;;58.90;19.17;;;-0.50;99.90;;;;;;5009037;28;20026;-75
2023/12/04 04:49:06;;;;;;;52.50;18.17;;;-0.50;99.90;;;;;;4993256;28;20023;-73
2023/12/04 04:51:32;;;;;;;49.78;16.90;;;-0.50;99.90;;;;;;4993820;28;20018;-75
2023/12/04 04:53:57;;;;;;;52.22;18.45;;;-0.50;99.90;;;;;;4992252;28;20025;-74
2023/12/04 04:56:23;;;;;;;50.17;17.00;;;-0.50;99.90;;;;;;4992348;28;20033;-73
2023/12/04 04:58:49;;;;;;;49.20;17.17;;;-0.50;99.90;;;;;;4993905;28;20046;-72
2023/12/04 05:01:14;;;;;;;48.65;17.08;;;-0.50;99.90;;;;;;5008643;28;20038;-74
2023/12/04 05:03:40;;;;;;;56.47;17.98;;;-0.50;99.90;;;;;;4993754;28;20100;-74
2023/12/04 05:06:06;;;;;;;47.45;16.77;;;-0.50;99.90;;;;;;5008426;28;20510;-72
2023/12/04 05:08:31;;;;;;;60.38;19.80;;;-0.50;99.90;;;;;;4993489;28;20019;-76
2023/12/04 05:10:57;;;;;;;47.83;17.02;;;-0.50;99.90;;;;;;4992232;28;20022;-74
2023/12/04 05:13:23;;;;;;;52.45;16.17;;;-0.50;99.90;;;;;;4992568;28;20031;-74
2023/12/04 05:15:48;;;;;;;55.03;19.42;;;-0.50;99.90;;;;;;4990009;28;20034;-71
2023/12/04 05:18:14;;;;;;;59.17;19.50;;;-0.50;99.90;;;;;;4992458;28;20042;-74
2023/12/04 05:20:40;;;;;;;58.70;18.42;;;-0.50;99.90;;;;;;4991318;28;20034;-73
2023/12/04 05:23:05;;;;;;;58.35;19.17;;;-0.50;99.90;;;;;;4993331;28;20034;-74
2023/12/04 05:25:31;;;;;;;55.15;18.80;;;-0.50;99.90;;;;;;5007738;28;20046;-73
2023/12/04 05:27:56;;;;;;;54.15;19.88;;;-0.50;99.90;;;;;;4992795;28;20026;-74
2023/12/04 05:30:22;;;;;;;56.00;19.70;;;-0.50;99.90;;;;;;4991844;28;20018;-74
2023/12/04 05:32:47;;;;;;;52.47;18.00;;;-0.50;99.90;;;;;;5008259;28;20019;-75
2023/12/04 05:35:16;;;;;;;48.33;16.70;;;-0.40;99.90;;;;;;5008004;28;20033;-72
2023/12/04 05:37:42;;;;;;;46.47;16.25;;;-0.50;99.90;;;;;;4991864;28;20050;-74
2023/12/04 05:40:08;;;;;;;47.08;16.27;;;-0.50;99.90;;;;;;4990618;28;20026;-74
2023/12/04 05:42:34;;;;;;;55.40;18.60;;;-0.50;99.90;;;;;;4992082;28;20121;-74
2023/12/04 05:45:00;;;;;;;53.08;18.80;;;-0.40;99.90;;;;;;5007439;28;20058;-77
2023/12/04 05:47:26;;;;;;;57.80;19.05;;;-0.50;99.90;;;;;;4992938;28;20019;-74
2023/12/04 05:49:51;;;;;;;49.45;16.80;;;-0.50;99.90;;;;;;4992169;28;20038;-73
2023/12/04 05:52:17;;;;;;;61.22;20.77;;;-0.40;99.90;;;;;;4992992;28;20027;-73
2023/12/04 05:54:43;;;;;;;52.92;19.85;;;-0.40;99.90;;;;;;5007537;28;20026;-74
2023/12/04 05:57:08;;;;;;;56.15;17.67;;;-0.40;99.90;;;;;;4992854;28;20093;-73
2023/12/04 05:59:34;;;;;;;56.35;19.65;;;-0.30;99.90;;;;;;5005091;28;20031;-72
2023/12/04 06:02:00;;;;;;;43.17;15.43;;;-0.40;99.90;;;;;;4991428;28;20029;-72
2023/12/04 06:04:26;;;;;;;54.45;18.80;;;-0.40;99.90;;;;;;4992340;28;20539;-73
2023/12/04 06:06:52;;;;;;;47.53;16.70;;;-0.40;99.90;;;;;;4992758;28;20023;-74
2023/12/04 06:09:18;;;;;;;52.08;18.52;;;-0.40;99.90;;;;;;4992796;28;20038;-74
2023/12/04 06:11:43;;;;;;;50.33;16.92;;;-0.30;99.90;;;;;;5007263;28;20023;-72
2023/12/04 06:14:10;;;;;;;43.00;15.88;;;-0.30;99.90;;;;;;4992840;28;20404;-73
2023/12/04 06:16:36;;;;;;;40.60;15.82;;;-0.30;99.90;;;;;;5006796;28;20034;-73
2023/12/04 06:19:03;;;;;;;62.55;21.10;;;-0.30;99.90;;;;;;4992616;28;20078;-74
2023/12/04 06:21:30;;;;;;;52.03;17.77;;;-0.30;99.90;;;;;;4992438;28;20034;-71
2023/12/04 06:23:55;;;;;;;54.10;19.95;;;-0.30;99.90;;;;;;4991907;28;20045;-74
2023/12/04 06:26:21;;;;;;;54.53;20.60;;;-0.30;99.90;;;;;;4992019;28;20039;-73
2023/12/04 06:28:47;;;;;;;46.80;14.98;;;-0.30;99.90;;;;;;4992603;28;20026;-73
2023/12/04 06:31:13;;;;;;;49.03;17.35;;;-0.30;99.90;;;;;;4992241;28;20022;-72
2023/12/04 06:33:39;;;;;;;50.33;16.73;;;-0.30;99.90;;;;;;4992861;28;20045;-74
2023/12/04 06:36:06;;;;;;;49.85;18.13;;;-0.30;99.90;;;;;;4992393;28;20018;-73
2023/12/04 06:38:34;;;;;;;45.80;15.75;;;-0.30;99.90;;;;;;4992368;28;20026;-73
2023/12/04 06:41:00;;;;;;;62.97;20.02;;;-0.20;99.90;;;;;;5007194;28;20090;-73
2023/12/04 06:43:27;;;;;;;54.90;19.00;;;-0.30;99.90;;;;;;4990470;28;20082;-73
2023/12/04 06:45:56;;;;;;;46.67;16.77;;;-0.20;99.90;;;;;;4990890;28;20030;-72
2023/12/04 06:48:22;;;;;;;52.17;18.50;;;-0.20;99.90;;;;;;4988801;28;20158;-72
2023/12/04 06:50:48;;;;;;;62.83;19.73;;;-0.20;99.90;;;;;;4991006;28;20034;-72
2023/12/04 06:53:14;;;;;;;62.17;19.83;;;-0.20;99.90;;;;;;4992449;28;20019;-73
2023/12/04 06:55:39;;;;;;;55.95;19.92;;;-0.20;99.90;;;;;;5006468;28;20699;-72
2023/12/04 06:58:05;;;;;;;47.08;15.60;;;-0.10;99.90;;;;;;4990580;28;20038;-71
2023/12/04 07:00:30;;;;;;;57.97;18.67;;;-0.20;99.90;;;;;;4992306;28;20042;-72
2023/12/04 07:02:56;;;;;;;42.42;14.60;;;-0.20;99.90;;;;;;4992020;28;20043;-73
2023/12/04 07:05:22;;;;;;;51.63;19.05;;;-0.20;99.90;;;;;;5006950;28;20030;-71
2023/12/04 07:07:47;;;;;;;43.67;14.85;;;-0.20;99.90;;;;;;4990768;28;20467;-73
2023/12/04 07:10:14;;;;;;;44.20;15.02;;;-0.20;99.90;;;;;;4991470;28;20042;-73
2023/12/04 07:12:43;;;;;;;51.45;16.73;;;-0.20;99.90;;;;;;4993262;28;20019;-73
2023/12/04 07:15:10;;;;;;;57.88;18.50;;;-0.20;99.90;;;;;;4995485;28;20023;-74
2023/12/04 07:17:37;;;;;;;51.30;17.20;;;-0.20;99.90;;;;;;4994507;28;20034;-73
2023/12/04 07:20:03;;;;;;;53.28;18.38;;;-0.20;99.90;;;;;;4994819;28;20026;-73
2023/12/04 07:22:31;;;;;;;58.47;20.83;;;-0.20;99.90;;;;;;4994007;28;20026;-72
2023/12/04 07:24:56;;;;;;;51.17;18.70;;;-0.10;99.90;;;;;;4994660;28;20066;-71
2023/12/04 07:27:22;;;;;;;32.22;10.70;;;-0.10;99.90;;;;;;4994475;28;20034;-72
2023/12/04 07:29:48;;;;;;;59.85;20.50;;;-0.10;99.90;;;;;;4995449;28;20121;-74
2023/12/04 07:32:13;;;;;;;41.80;15.55;;;-0.10;99.90;;;;;;4995634;28;20030;-71
2023/12/04 07:34:39;;;;;;;54.90;18.85;;;-0.10;99.90;;;;;;4995455;28;20034;-71
2023/12/04 07:37:04;;;;;;;58.97;19.58;;;-0.10;99.90;;;;;;4994985;28;20407;-73
2023/12/04 07:39:30;;;;;;;52.28;17.92;;;-0.10;99.90;;;;;;4995176;28;20037;-71
2023/12/04 07:41:55;;;;;;;37.30;12.07;;;-0.10;99.90;;;;;;4993987;28;20386;-71
2023/12/04 07:44:21;;;;;;;61.22;20.27;;;-0.10;99.90;;;;;;4994880;28;20117;-74
2023/12/04 07:46:46;;;;;;;54.38;17.73;;;-0.10;99.90;;;;;;4995323;28;20594;-74
2023/12/04 07:49:12;;;;;;;54.90;19.75;;;-0.10;99.90;;;;;;4995041;28;20027;-75
2023/12/04 07:51:38;;;;;;;64.45;21.45;;;0.00;99.90;;;;;;5008724;28;20057;-73
2023/12/04 07:54:04;;;;;;;31.30;10.73;;;-0.10;99.90;;;;;;4994830;28;20033;-72
2023/12/04 07:56:30;;;;;;;57.30;20.88;;;0.00;99.90;;;;;;4994444;28;20034;-73
2023/12/04 07:58:55;;;;;;;54.47;19.95;;;0.00;99.90;;;;;;4993663;28;20094;-73
2023/12/04 08:01:22;;;;;;;54.92;17.75;;;0.00;99.90;;;;;;4990618;28;20018;-74
2023/12/04 08:03:48;;;;;;;53.28;19.13;;;0.00;99.90;;;;;;4994996;28;20045;-72
2023/12/04 08:06:15;;;;;;;48.92;17.08;;;0.00;99.90;;;;;;4994717;28;20023;-72
2023/12/04 08:08:41;;;;;;;61.92;21.45;;;0.00;99.90;;;;;;4994913;28;20023;-73
2023/12/04 08:11:09;;;;;;;45.03;15.52;;;0.00;99.90;;;;;;4993127;28;21235;-72
2023/12/04 08:13:35;;;;;;;53.17;19.73;;;0.10;99.90;;;;;;4994691;28;20041;-72
2023/12/04 08:16:01;;;;;;;58.58;19.55;;;0.10;99.90;;;;;;4993887;28;20015;-73
2023/12/04 08:18:27;;;;;;;52.08;18.70;;;0.10;99.90;;;;;;4994732;28;20027;-73
2023/12/04 08:20:52;;;;;;;54.45;20.63;;;0.20;99.90;;;;;;4993839;28;20017;-74
2023/12/04 08:23:18;;;;;;;54.42;20.83;;;0.20;99.90;;;;;;4993924;28;20047;-73
2023/12/04 08:25:44;;;;;;;51.05;16.23;;;0.30;99.90;;;;;;4992203;28;20074;-73
2023/12/04 08:28:09;;;;;;;57.83;20.05;;;0.20;99.90;;;;;;4994360;28;20023;-73
2023/12/04 08:30:35;;;;;;;53.33;16.48;;;0.20;99.90;;;;;;4994446;28;20092;-73
2023/12/04 08:33:01;;;;;;;51.33;19.27;;;0.20;99.90;;;;;;4993878;28;20090;-73
2023/12/04 08:35:26;;;;;;;56.15;20.20;;;0.20;99.90;;;;;;5009382;28;20030;-73
2023/12/04 08:37:52;;;;;;;53.08;19.02;;;0.30;99.90;;;;;;4993949;28;20018;-73
2023/12/04 08:40:17;;;;;;;50.38;18.88;;;0.30;99.90;;;;;;4994254;28;20113;-74
2023/12/04 08:42:44;;;;;;;31.05;11.15;;;0.30;99.90;;;;;;4993755;28;20022;-73
2023/12/04 08:45:11;;;;;;;47.95;15.90;;;0.30;99.90;;;;;;4994411;28;20053;-72
2023/12/04 08:47:36;;;;;;;55.03;18.60;;;0.40;99.90;;;;;;4994127;28;20049;-73
2023/12/04 08:50:02;;;;;;;49.28;16.67;;;0.40;99.90;;;;;;4993776;28;20019;-74
2023/12/04 08:52:27;;;;;;;47.80;17.55;;;0.40;99.90;;;;;;4994062;28;20022;-73
2023/12/04 08:54:54;;;;;;;45.92;16.70;;;0.30;99.90;;;;;;4992393;28;20023;-74
2023/12/04 08:57:19;;;;;;;47.17;17.23;;;0.40;99.90;;;;;;4993962;28;20117;-74
2023/12/04 08:59:45;;;;;;;46.15;16.02;;;0.40;99.90;;;;;;4993166;28;20070;-74
2023/12/04 09:02:11;;;;;;;45.58;17.08;;;0.40;99.90;;;;;;4993844;28;20030;-71
2023/12/04 09:04:37;;;;;;;48.20;17.92;;;0.40;99.90;;;;;;4993689;28;20033;-73
2023/12/04 09:07:03;;;;;;;47.33;16.83;;;0.40;99.90;;;;;;4993710;28;20022;-71
2023/12/04 09:09:28;;;;;;;45.03;16.20;;;0.40;99.90;;;;;;4993557;28;20499;-72
2023/12/04 09:11:54;;;;;;;34.97;13.32;;;0.50;99.90;;;;;;4993473;28;21942;-73
2023/12/04 09:14:19;;;;;;;37.83;14.02;;;0.50;99.90;;;;;;4993337;28;20036;-73
2023/12/04 09:16:45;;;;;;;47.28;17.55;;;0.50;99.90;;;;;;4993635;28;20029;-72
2023/12/04 09:19:10;;;;;;;43.42;16.02;;;0.50;99.90;;;;;;4992308;28;20027;-73
2023/12/04 09:21:37;;;;;;;38.30;14.60;;;0.60;99.90;;;;;;4991954;28;20053;-73
2023/12/04 09:24:02;;;;;;;39.28;14.60;;;0.50;99.90;;;;;;4993141;28;20078;-73
2023/12/04 09:26:28;;;;;;;40.13;14.93;;;0.60;99.90;;;;;;4990610;28;20053;-72
2023/12/04 09:28:54;;;;;;;42.58;14.30;;;0.70;99.90;;;;;;4992341;28;20127;-73
2023/12/04 09:31:19;;;;;;;38.95;15.30;;;0.60;99.90;;;;;;5007755;28;20157;-73
2023/12/04 09:33:47;;;;;;;40.72;14.45;;;0.60;99.90;;;;;;4992974;28;20459;-74
2023/12/04 09:36:12;;;;;;;37.75;14.05;;;0.60;99.90;;;;;;4992956;28;20029;-73
2023/12/04 09:38:38;;;;;;;35.53;13.88;;;0.70;99.90;;;;;;4992934;28;20026;-73
2023/12/04 09:41:06;;;;;;;37.97;15.65;;;0.60;99.90;;;;;;4992578;28;20038;-71
2023/12/04 09:43:32;;;;;;;36.35;14.65;;;0.70;99.90;;;;;;4989926;28;20046;-74
2023/12/04 09:45:59;;;;;;;36.95;14.20;;;0.70;99.90;;;;;;4991352;28;20342;-73
2023/12/04 09:48:26;;;;;;;33.47;13.10;;;0.70;99.90;;;;;;4992546;28;20057;-72
2023/12/04 09:50:53;;;;;;;40.83;15.32;;;0.70;99.90;;;;;;4991732;28;20026;-74
2023/12/04 09:53:19;;;;;;;38.38;15.70;;;0.70;99.90;;;;;;4992440;28;20030;-73
2023/12/04 09:55:51;;;;;;;37.15;14.02;;;0.70;99.90;;;;;;4991828;28;20102;-72
2023/12/04 09:58:20;;;;;;;39.88;15.25;;;0.70;99.90;;;;;;4991003;28;20029;-73
2023/12/04 10:00:46;;;;;;;37.70;15.38;;;0.70;99.90;;;;;;4988827;28;20026;-73
2023/12/04 10:03:12;;;;;;;43.55;15.85;;;0.80;99.90;;;;;;5007288;28;20046;-73
2023/12/04 10:05:44;;;;;;;35.67;15.02;;;0.80;99.90;;;;;;4992067;28;20077;-74
2023/12/04 10:08:09;;;;;;;36.55;13.73;;;0.80;99.90;;;;;;5007726;28;20027;-73
2023/12/04 10:10:35;;;;;;;42.33;15.45;;;0.90;99.90;;;;;;4990724;28;20428;-74
2023/12/04 10:13:00;;;;;;;41.08;14.60;;;0.90;99.90;;;;;;4990829;28;20077;-73
2023/12/04 10:15:26;;;;;;;41.85;15.48;;;0.90;99.90;;;;;;4992037;28;20014;-72
2023/12/04 10:17:54;;;;;;;37.13;14.57;;;0.90;99.90;;;;;;4992459;28;20023;-72
2023/12/04 10:20:21;;;;;;;34.38;13.00;;;0.90;99.90;;;;;;4990458;28;20034;-73
2023/12/04 10:22:55;;;;;;;35.25;12.77;;;0.90;99.90;;;;;;4992445;28;20038;-72
2023/12/04 10:25:21;;;;;;;36.08;14.65;;;0.90;99.90;;;;;;4988384;28;20053;-73
2023/12/04 10:27:47;;;;;;;36.05;13.70;;;0.90;99.90;;;;;;4991531;28;21534;-73
2023/12/04 10:30:27;;;;;;;37.53;14.00;;;1.00;99.90;;;;;;4992423;28;20099;-71
2023/12/04 10:33:00;;;;;;;35.45;13.70;;;1.00;99.90;;;;;;4990272;28;20368;-71
2023/12/04 10:35:29;;;;;;;41.78;15.32;;;1.00;99.90;;;;;;4991066;28;20022;-71
2023/12/04 10:37:56;;;;;;;38.47;15.07;;;1.00;99.90;;;;;;4992046;28;20045;-69
2023/12/04 10:40:29;;;;;;;35.45;14.38;;;0.90;99.90;;;;;;4991962;28;20022;-73
2023/12/04 10:43:20;;;;;;;36.38;14.63;;;1.00;99.90;;;;;;4992529;28;20023;-72
2023/12/04 10:45:47;;;;;;;33.60;14.32;;;1.00;99.90;;;;;;4992100;28;20062;-72
2023/12/04 10:48:14;;;;;;;35.22;13.48;;;1.00;99.90;;;;;;4994194;28;20035;-71
2023/12/04 10:50:42;;;;;;;35.20;14.35;;;1.00;99.90;;;;;;4996168;28;20030;-72
2023/12/04 10:53:10;;;;;;;39.28;14.88;;;1.10;99.90;;;;;;4995446;28;20109;-70
2023/12/04 10:55:36;;;;;;;38.35;14.98;;;1.10;99.90;;;;;;4995863;28;20031;-71
2023/12/04 10:58:06;;;;;;;34.53;13.60;;;1.10;99.90;;;;;;4996017;28;20554;-71
2023/12/04 11:00:38;;;;;;;36.15;14.13;;;1.10;99.90;;;;;;4995748;28;20030;-71
2023/12/04 11:03:09;;;;;;;34.08;14.50;;;1.10;99.90;;;;;;4994143;28;20074;-71
2023/12/04 11:05:41;;;;;;;33.58;14.00;;;1.20;99.90;;;;;;4995883;28;20023;-72
2023/12/04 11:08:15;;;;;;;32.75;12.95;;;1.30;99.90;;;;;;4995771;28;20447;-70
2023/12/04 11:11:09;;;;;;;31.05;13.77;;;1.20;99.90;;;;;;4995400;28;20026;-72
2023/12/04 11:13:49;;;;;;;35.30;13.45;;;1.20;99.90;;;;;;4995951;28;20027;-71
2023/12/04 11:16:36;;;;;;;33.47;13.80;;;1.30;99.90;;;;;;4994925;28;20030;-71
2023/12/04 11:19:25;;;;;;;32.45;13.98;;;1.30;99.90;;;;;;4995297;28;20018;-70
2023/12/04 11:21:52;;;;;;;31.75;13.25;;;1.40;99.90;;;;;;4995268;28;20027;-72
2023/12/04 11:24:21;;;;;;;33.65;14.23;;;1.40;99.90;;;;;;4992532;28;20050;-73
2023/12/04 11:26:47;;;;;;;27.15;10.40;;;1.40;99.90;;;;;;4993356;28;20062;-71
2023/12/04 11:29:13;;;;;;;36.90;15.27;;;1.40;99.90;;;;;;4990966;28;20022;-73
2023/12/04 11:31:39;;;;;;;35.22;14.00;;;1.40;99.90;;;;;;4992162;28;20022;-72
2023/12/04 11:34:07;;;;;;;31.17;13.57;;;1.40;99.90;;;;;;4994273;28;20050;-72
2023/12/04 11:36:34;;;;;;;31.42;13.75;;;1.40;99.90;;;;;;4993585;28;20037;-71
2023/12/04 11:39:00;;;;;;;31.20;12.93;;;1.50;99.90;;;;;;4994577;28;20019;-72
2023/12/04 11:41:26;;;;;;;30.35;12.77;;;1.50;99.90;;;;;;4994947;28;20027;-71
2023/12/04 11:43:54;;;;;;;28.92;12.63;;;1.50;99.90;;;;;;4995103;28;20078;-71
2023/12/04 11:46:23;;;;;;;28.55;13.25;;;1.60;99.90;;;;;;4994948;28;20027;-71
2023/12/04 11:49:08;;;;;;;30.08;12.77;;;1.60;99.90;;;;;;4994810;28;20140;-71
2023/12/04 11:51:42;;;;;;;29.30;12.18;;;1.60;99.90;;;;;;4994601;28;20110;-72
2023/12/04 11:54:09;;;;;;;30.00;12.65;;;1.70;99.90;;;;;;4994338;28;20491;-71
2023/12/04 11:56:34;;;;;;;31.27;13.23;;;1.70;99.90;;;;;;4993907;28;20047;-71
2023/12/04 11:59:04;;;;;;;24.70;10.55;;;1.70;99.90;;;;;;4992689;28;20090;-70
2023/12/04 12:01:35;;;;;;;29.20;12.35;;;1.70;99.90;;;;;;4992878;28;20081;-70
2023/12/04 12:04:02;;;;;;;29.70;12.98;;;1.70;99.90;;;;;;4994057;28;20046;-72
2023/12/04 12:06:27;;;;;;;27.77;11.77;;;1.70;99.90;;;;;;4994134;28;20026;-72
2023/12/04 12:08:55;;;;;;;28.40;12.38;;;1.80;99.90;;;;;;4994106;28;20038;-72
2023/12/04 12:11:22;;;;;;;27.23;12.65;;;1.70;99.90;;;;;;4993690;28;20059;-70
2023/12/04 12:13:47;;;;;;;27.45;13.05;;;1.80;99.90;;;;;;4992641;28;20707;-71
2023/12/04 12:16:13;;;;;;;30.38;12.45;;;1.80;99.90;;;;;;4994481;28;20057;-73
2023/12/04 12:18:40;;;;;;;30.17;12.73;;;1.80;99.90;;;;;;4994169;28;20030;-71
2023/12/04 12:21:07;;;;;;;28.65;13.23;;;1.80;99.90;;;;;;4993657;28;20110;-70
2023/12/04 12:23:33;;;;;;;28.50;12.82;;;1.80;99.90;;;;;;4993032;28;20034;-71
2023/12/04 12:26:00;;;;;;;29.92;12.20;;;1.80;99.90;;;;;;4992049;28;20559;-70
2023/12/04 12:28:25;;;;;;;25.63;11.95;;;1.80;99.90;;;;;;4988845;28;20045;-69